createdAt,value
2018-04-12T07:48:21.124Z,39.45
2018-04-12T07:50:53.832Z,37.42
2018-04-12T07:53:23.229Z,38.75
2018-04-12T07:55:52.300Z,36.08
2018-04-12T07:58:22.247Z,37.90
2018-04-12T08:00:51.493Z,37.25
2018-04-12T08:03:20.562Z,35.53
2018-04-12T08:05:50.577Z,37.50
2018-04-12T08:08:25.084Z,35.72
2018-04-12T08:10:54.388Z,38.25
2018-04-12T08:13:24.402Z,36.30
2018-04-12T08:15:54.637Z,36.42
2018-04-12T08:18:23.896Z,33.55
2018-04-12T08:20:53.391Z,34.08
2018-04-12T08:23:23.429Z,36.58
2018-04-12T08:25:52.495Z,35.75
2018-04-12T08:28:21.596Z,37.58
2018-04-12T08:30:50.704Z,35.50
2018-04-12T08:33:19.880Z,35.80
2018-04-12T08:35:49.170Z,36.65
2018-04-12T08:38:18.331Z,37.28
2018-04-12T08:40:47.446Z,35.95
2018-04-12T08:43:17.578Z,36.47
2018-04-12T08:45:48.950Z,37.33
2018-04-12T08:48:18.206Z,37.00
2018-04-12T08:50:48.103Z,39.15
2018-04-12T08:53:17.282Z,40.65
2018-04-12T08:55:46.564Z,40.45
2018-04-12T08:58:16.414Z,42.58
2018-04-12T09:00:46.419Z,39.22
2018-04-12T09:03:15.669Z,38.13
2018-04-12T09:05:46.216Z,38.60
2018-04-12T09:08:15.388Z,38.08
2018-04-12T09:10:44.722Z,36.40
2018-04-12T09:13:13.875Z,36.97
2018-04-12T09:15:43.808Z,36.35
2018-04-12T09:18:14.928Z,35.50
2018-04-12T09:20:45.785Z,40.55
2018-04-12T09:23:17.231Z,37.10
2018-04-12T09:25:47.124Z,37.05
2018-04-12T09:28:16.351Z,37.83
2018-04-12T09:30:46.311Z,37.60
2018-04-12T09:33:16.286Z,37.03
2018-04-12T09:35:46.363Z,37.65
2018-04-12T09:38:18.027Z,37.97
2018-04-12T09:40:47.131Z,36.78
2018-04-12T09:43:17.109Z,37.47
2018-04-12T09:45:46.291Z,39.58
2018-04-12T09:48:15.982Z,38.75
2018-04-12T09:50:45.382Z,36.22
2018-04-12T09:53:19.788Z,36.63
2018-04-12T09:55:49.780Z,39.38
2018-04-12T09:58:20.090Z,39.03
2018-04-12T10:00:53.763Z,40.67
2018-04-12T10:03:23.437Z,42.92
2018-04-12T10:05:57.707Z,43.90
2018-04-12T10:08:28.179Z,41.58
2018-04-12T10:10:58.193Z,42.78
2018-04-12T10:13:28.083Z,43.55
2018-04-12T10:15:57.450Z,45.00
2018-04-12T10:18:27.969Z,44.80
2018-04-12T10:20:59.429Z,43.15
2018-04-12T10:23:30.916Z,42.95
2018-04-12T10:26:01.175Z,43.50
2018-04-12T10:28:30.924Z,42.80
2018-04-12T10:31:02.049Z,42.40
2018-04-12T10:33:31.173Z,42.35
2018-04-12T10:36:00.522Z,42.72
2018-04-12T10:38:32.732Z,43.67
2018-04-12T10:41:05.174Z,42.83
2018-04-12T10:43:36.723Z,43.57
2018-04-12T10:46:10.013Z,42.00
2018-04-12T10:48:40.195Z,40.93
2018-04-12T10:51:10.099Z,44.77
2018-04-12T10:53:39.556Z,41.60
2018-04-12T10:56:09.685Z,41.33
2018-04-12T10:58:41.090Z,43.40
2018-04-12T11:01:10.502Z,42.17
2018-04-12T11:03:39.805Z,40.93
2018-04-12T11:06:10.096Z,44.03
2018-04-12T11:11:15.299Z,43.27
2018-04-12T11:13:45.487Z,44.43
2018-04-12T11:16:14.765Z,42.10
2018-04-12T11:18:50.670Z,44.00
2018-04-12T11:21:19.983Z,43.73
2018-04-12T11:23:49.516Z,46.73
2018-04-12T11:26:19.530Z,47.03
2018-04-12T11:28:48.789Z,44.27
2018-04-12T11:31:18.210Z,44.17
2018-04-12T11:33:49.290Z,43.47
2018-04-12T11:36:23.524Z,43.03
2018-04-12T11:38:59.694Z,45.63
2018-04-12T11:41:28.928Z,43.70
2018-04-12T11:44:07.740Z,41.87
2018-04-12T11:46:37.760Z,44.10
2018-04-12T11:49:11.684Z,42.05
2018-04-12T11:51:41.638Z,42.25
2018-04-12T11:54:11.361Z,37.67
2018-04-12T11:56:40.673Z,38.90
2018-04-12T11:59:10.710Z,39.27
2018-04-12T12:01:39.982Z,38.60
2018-04-12T12:04:09.229Z,36.70
2018-04-12T12:06:39.269Z,35.72
2018-04-12T12:09:09.249Z,36.40
2018-04-12T12:11:43.506Z,33.58
2018-04-12T12:14:12.749Z,31.50
2018-04-12T12:16:42.728Z,30.37
2018-04-12T12:19:12.956Z,35.33
2018-04-12T12:21:42.859Z,36.70
2018-04-12T13:07:54.241Z,29.30
2018-04-12T13:10:24.916Z,28.23
2018-04-12T13:12:55.754Z,29.33
2018-04-12T13:15:25.901Z,30.60
2018-04-12T13:17:55.414Z,31.40
2018-04-12T13:20:29.996Z,35.13
2018-04-12T13:23:00.157Z,36.50
2018-04-12T13:25:31.904Z,35.05
2018-04-12T13:28:10.486Z,35.23
2018-04-12T13:30:39.767Z,33.80
2018-04-12T13:33:11.098Z,34.67
2018-04-12T13:35:45.786Z,35.73
2018-04-12T13:38:15.198Z,37.72
2018-04-12T13:40:44.572Z,34.67
2018-04-12T13:43:16.223Z,33.70
2018-04-12T13:45:46.300Z,33.47
2018-04-12T13:48:19.235Z,35.13
2018-04-12T13:50:49.489Z,33.83
2018-04-12T13:53:19.371Z,34.83
2018-04-12T13:55:48.624Z,34.58
2018-04-12T13:58:18.775Z,34.03
2018-04-12T14:00:48.699Z,34.35
2018-04-12T14:03:23.090Z,33.13
2018-04-12T14:05:53.044Z,32.35
2018-04-12T14:08:23.470Z,32.47
2018-04-12T14:10:53.789Z,32.40
2018-04-12T14:16:55.129Z,31.33
2018-04-12T14:19:24.536Z,30.15
2018-04-12T14:21:53.812Z,31.40
2018-04-12T14:24:23.329Z,30.92
2018-04-12T14:26:52.672Z,28.10
2018-04-12T14:29:21.972Z,27.20
2018-04-12T14:31:51.978Z,24.60
2018-04-12T14:34:21.400Z,24.12
2018-04-12T14:36:51.780Z,23.90
2018-04-12T14:39:22.455Z,24.83
2018-04-12T14:41:51.901Z,24.73
2018-04-12T14:44:21.172Z,25.83
2018-04-12T14:46:51.804Z,23.55
2018-04-12T14:49:20.984Z,23.45
2018-04-12T14:51:51.190Z,22.77
2018-04-12T14:54:21.102Z,22.02
2018-04-12T14:56:51.218Z,22.85
2018-04-12T14:59:21.362Z,20.92
2018-04-12T15:01:50.906Z,21.05
2018-04-12T15:04:21.963Z,19.98
2018-04-12T15:06:51.341Z,19.10
2018-04-12T15:09:20.850Z,18.05
2018-04-12T15:11:51.199Z,17.85
2018-04-12T15:14:21.265Z,17.52
2018-04-12T15:16:50.826Z,18.73
2018-04-12T15:21:56.928Z,16.85
2018-04-12T15:24:27.017Z,17.00
2018-04-12T15:26:56.271Z,17.52
2018-04-12T15:29:25.733Z,15.70
2018-04-12T15:31:56.752Z,17.62
2018-04-12T15:34:26.211Z,16.90
2018-04-12T15:36:55.464Z,17.37
2018-04-12T15:39:24.702Z,15.50
2018-04-12T15:44:28.267Z,15.80
2018-04-12T15:46:57.745Z,15.90
2018-04-12T15:49:27.051Z,15.23
2018-04-12T15:51:56.428Z,15.68
2018-04-12T15:54:25.859Z,16.05
2018-04-12T15:57:00.247Z,16.98
2018-04-12T15:59:30.443Z,15.65
2018-04-12T16:02:01.326Z,14.82
2018-04-12T16:04:30.810Z,15.15
2018-04-12T16:07:00.314Z,15.57
2018-04-12T16:09:29.963Z,14.65
2018-04-12T16:12:01.813Z,14.43
2018-04-12T16:14:31.166Z,14.00
2018-04-12T16:19:40.339Z,13.30
2018-04-12T16:22:11.175Z,14.85
2018-04-12T16:24:40.376Z,14.35
2018-04-12T16:27:11.374Z,14.02
2018-04-12T16:29:42.749Z,14.00
2018-04-12T16:32:12.786Z,14.68
2018-04-12T16:34:42.078Z,13.75
2018-04-12T16:37:15.902Z,14.63
2018-04-12T16:39:45.419Z,13.60
2018-04-12T16:42:18.942Z,14.55
2018-04-12T16:44:48.305Z,13.70
2018-04-12T16:47:17.428Z,13.00
2018-04-12T16:49:46.730Z,13.50
2018-04-12T16:52:16.290Z,12.30
2018-04-12T16:54:48.928Z,13.80
2018-04-12T16:57:27.197Z,13.27
2018-04-12T16:59:56.469Z,12.95
2018-04-12T17:02:25.660Z,13.40
2018-04-12T17:04:54.896Z,13.15
2018-04-12T17:07:24.852Z,13.70
2018-04-12T17:09:54.145Z,12.77
2018-04-12T17:12:28.780Z,13.02
2018-04-12T17:14:58.348Z,12.95
2018-04-12T17:17:27.780Z,14.05
2018-04-12T17:19:57.403Z,13.13
2018-04-12T17:22:27.663Z,13.70
2018-04-12T17:24:56.908Z,13.73
2018-04-12T17:27:26.105Z,13.82
2018-04-12T17:29:55.642Z,13.88
2018-04-12T17:32:29.002Z,13.75
2018-04-12T17:34:58.264Z,14.57
2018-04-12T17:37:28.084Z,14.20
2018-04-12T17:39:57.647Z,13.75
2018-04-12T17:42:27.765Z,12.10
2018-04-12T17:44:58.098Z,12.93
2018-04-12T17:47:27.444Z,13.50
2018-04-12T17:49:56.550Z,13.70
2018-04-12T17:52:31.499Z,14.70
2018-04-12T17:55:06.207Z,14.02
2018-04-12T17:57:35.609Z,14.52
2018-04-12T18:00:05.928Z,13.15
2018-04-12T18:02:35.285Z,14.00
2018-04-12T18:05:06.120Z,13.55
2018-04-12T18:07:38.953Z,13.38
2018-04-12T18:10:10.043Z,13.60
2018-04-12T18:12:39.398Z,15.52
2018-04-12T18:15:18.211Z,13.27
2018-04-12T18:32:35.475Z,12.15
